Latest Weather Observations for Hindmarsh Island

IDS60901

Issued at 9:51 am CST Tuesday 14 July 2020 (issued every 10 minutes, with the page automatically refreshed every 10 minutes)

About weather observations | Map of Adelaide area stations | Latest observations for Adelaide area | Other Formats
Station Details ID: 023894 Name: HINDMARSH ISLAND AWS Lat: -35.52 Lon: 138.82 Height: 11.0 m
Data from the previous 72 hours. | See also: Recent months at Hindmarsh Island
Date/Time
CST
Temp
°C
App
Temp
°C
Dew
Point
°C
Rel
Hum
%
Delta-T
°C
Wind Press
QNH
hPa
Press
MSL
hPa
Rain since
9am
mm
Dir  Spd
km/h
Gust
km/h
Spd
kts
Gust
kts
14/09:30am 10.6 10.4 9.2 91 0.7 CALM 0 0 0 0 1029.1 1029.1 0.0
14/09:00am 10.4 10.3 9.5 94 0.4 CALM 0 0 0 0 1028.9 1028.9 0.4
14/08:30am 8.1 6.3 7.0 93 0.5 NNE 6 6 3 3 1028.6 1028.6 0.4
14/08:00am 7.1 4.1 6.0 93 0.5 NNE 11 11 6 6 1028.3 1028.3 0.4
14/07:30am 6.6 3.5 5.6 93 0.4 ENE 11 13 6 7 1028.4 1028.4 0.4
14/07:00am 6.6 3.9 5.6 93 0.4 ENE 9 11 5 6 1028.5 1028.5 0.2
14/06:30am 6.7 4.0 5.7 93 0.4 ENE 9 11 5 6 1028.3 1028.3 0.2
14/06:00am 7.2 5.2 6.1 93 0.5 ENE 6 7 3 4 1028.3 1028.3 0.2
14/05:30am 7.5 5.3 6.4 93 0.5 ENE 7 9 4 5 1028.0 1028.0 0.2
14/05:00am 7.3 5.3 6.2 93 0.5 ENE 6 7 3 4 1028.0 1028.0 0.2
14/04:30am 7.2 5.0 6.0 92 0.5 ENE 7 9 4 5 1028.0 1028.0 0.2
14/04:00am 7.8 5.7 6.7 93 0.5 ENE 7 9 4 5 1027.9 1027.9 0.2
14/03:30am 7.4 5.2 6.3 93 0.5 ENE 7 9 4 5 1027.9 1027.9 0.2
14/03:00am 8.0 6.1 6.8 92 0.6 ENE 6 6 3 3 1028.0 1028.0 0.2
14/02:30am 7.7 5.5 6.3 91 0.6 ENE 7 9 4 5 1028.1 1028.1 0.2
14/02:00am 8.8 6.9 7.6 92 0.6 ENE 7 7 4 4 1028.2 1028.2 0.2
14/01:30am 8.0 5.1 6.5 90 0.7 ENE 11 11 6 6 1028.2 1028.2 0.2
14/01:00am 8.8 6.8 7.1 89 0.8 ENE 7 9 4 5 1028.0 1028.0 0.2
14/12:30am 8.8 6.4 7.1 89 0.8 ENE 9 11 5 6 1028.3 1028.3 0.2
14/12:00am 8.9 6.6 7.5 91 0.7 ENE 9 11 5 6 1028.5 1028.5 0.2
 
Date/Time
CST
Temp
°C
App
Temp
°C
Dew
Point
°C
Rel
Hum
%
Delta-T
°C
Wind Press
QNH
hPa
Press
MSL
hPa
Rain since
9am
mm
Dir  Spd
km/h
Gust
km/h
Spd
kts
Gust
kts
13/11:30pm 9.1 7.2 7.5 90 0.8 ENE 7 9 4 5 1028.5 1028.5 0.2
13/11:00pm 9.2 6.9 7.3 88 0.9 ENE 9 11 5 6 1028.6 1028.6 0.2
13/10:30pm 9.3 8.7 7.4 88 0.9 CALM 0 6 0 3 1028.6 1028.6 0.2
13/10:00pm 9.9 8.6 7.7 86 1.1 E 4 6 2 3 1028.7 1028.7 0.2
13/09:30pm 9.9 8.2 7.5 85 1.1 SE 6 9 3 5 1028.6 1028.6 0.2
13/09:00pm 10.4 8.8 7.8 84 1.2 SE 6 9 3 5 1028.5 1028.5 0.2
13/08:30pm 11.3 9.4 8.9 85 1.2 SSE 9 11 5 6 1028.6 1028.6 0.2
13/08:00pm 10.7 8.2 8.1 84 1.3 SE 11 13 6 7 1028.4 1028.4 0.2
13/07:30pm 11.5 9.2 8.9 84 1.3 S 11 15 6 8 1028.3 1028.3 0.2
13/07:00pm 11.5 9.5 8.7 83 1.4 S 9 11 5 6 1028.2 1028.2 0.2
13/06:30pm 11.8 9.9 9.0 83 1.4 S 9 11 5 6 1028.1 1028.1 0.2
13/06:00pm 12.0 9.7 9.0 82 1.5 SSE 11 13 6 7 1027.8 1027.8 0.2
13/05:30pm 12.2 9.9 9.0 81 1.6 SSE 11 13 6 7 1027.4 1027.4 0.2
13/05:00pm 12.8 10.2 9.3 79 1.8 SSE 13 15 7 8 1027.2 1027.2 0.2
13/04:30pm 13.2 10.6 9.3 77 2.0 SSE 13 15 7 8 1027.1 1027.1 0.2
13/04:00pm 13.6 10.3 9.5 76 2.1 S 17 20 9 11 1026.7 1026.7 0.2
13/03:30pm 14.1 10.9 10.1 77 2.1 SSW 17 20 9 11 1026.4 1026.4 0.2
13/03:00pm 14.2 11.4 10.0 76 2.2 SSW 15 19 8 10 1026.3 1026.3 0.2
13/02:30pm 14.4 12.0 10.0 75 2.3 SW 13 17 7 9 1026.5 1026.5 0.2
13/02:00pm 14.5 12.1 9.9 74 2.4 SW 13 17 7 9 1026.5 1026.5 0.2
13/01:30pm 14.5 12.5 10.1 75 2.3 SW 11 13 6 7 1026.7 1026.7 0.2
13/01:00pm 14.4 12.3 9.8 74 2.4 SSW 11 13 6 7 1027.1 1027.1 0.2
13/12:30pm 14.4 11.8 9.2 71 2.6 S 13 17 7 9 1027.3 1027.3 0.0
13/12:00pm 13.8 12.4 9.5 75 2.2 SSE 7 9 4 5 1027.7 1027.7 0.0
13/11:30am 14.0 12.6 9.6 75 2.2 SSE 7 9 4 5 1028.1 1028.1 0.0
13/11:00am 14.2 12.9 9.8 75 2.3 N 7 9 4 5 1028.4 1028.4 0.0
13/10:30am 13.7 12.4 10.1 79 1.9 N 7 11 4 6 1028.3 1028.3 0.0
13/10:00am 13.0 11.8 10.2 83 1.4 N 7 9 4 5 1028.4 1028.4 0.0
13/09:30am 11.6 10.3 9.3 86 1.1 NNW 6 7 3 4 1028.2 1028.2 0.0
13/09:00am 10.5 9.0 9.1 91 0.7 NNW 7 9 4 5 1028.2 1028.2 0.0
13/08:30am 9.7 7.7 8.5 92 0.6 N 9 11 5 6 1027.8 1027.8 0.0
13/08:00am 9.0 7.1 7.6 91 0.7 NNW 7 9 4 5 1027.5 1027.5 0.0
13/07:30am 9.4 6.9 8.0 91 0.7 NNW 11 13 6 7 1027.2 1027.2 0.0
13/07:00am 9.3 6.7 7.7 90 0.8 NNW 11 13 6 7 1026.9 1026.9 0.0
13/06:30am 9.1 6.4 7.5 90 0.8 NW 11 11 6 6 1026.8 1026.8 0.0
13/06:00am 9.3 7.4 7.4 88 0.9 NE 7 9 4 5 1026.5 1026.5 0.0
13/05:30am 9.9 9.0 7.8 87 1.0 ENE 2 7 1 4 1026.4 1026.4 0.0
13/05:00am 10.5 9.0 8.4 87 1.0 ENE 6 6 3 3 1026.1 1026.1 0.0
13/04:30am 10.8 9.3 8.6 86 1.1 SE 6 7 3 4 1026.1 1026.1 0.0
13/04:00am 11.1 10.8 8.7 85 1.2 CALM 0 6 0 3 1025.9 1025.9 0.0
13/03:30am 10.8 10.4 8.4 85 1.2 CALM 0 6 0 3 1025.8 1025.8 0.0
13/03:00am 11.4 9.5 9.0 85 1.2 SE 9 11 5 6 1025.9 1025.9 0.0
13/02:30am 11.2 9.2 8.8 85 1.2 SE 9 11 5 6 1025.7 1025.7 0.0
13/02:00am 11.9 8.9 9.3 84 1.3 SE 15 19 8 10 1025.6 1025.6 0.0
13/01:30am 11.9 8.5 9.1 83 1.4 SE 17 20 9 11 1025.6 1025.6 0.0
13/01:00am 12.2 8.9 9.6 84 1.3 SE 17 20 9 11 1025.5 1025.5 0.0
13/12:30am 12.3 8.6 9.5 83 1.4 SE 19 20 10 11 1025.5 1025.5 0.0
13/12:00am 12.4 8.7 9.6 83 1.4 SSE 19 24 10 13 1025.4 1025.4 0.0
 
Date/Time
CST
Temp
°C
App
Temp
°C
Dew
Point
°C
Rel
Hum
%
Delta-T
°C
Wind Press
QNH
hPa
Press
MSL
hPa
Rain since
9am
mm
Dir  Spd
km/h
Gust
km/h
Spd
kts
Gust
kts
12/11:30pm 12.6 9.0 9.8 83 1.4 SSE 19 22 10 12 1025.3 1025.3 0.0
12/11:00pm 12.7 8.9 9.9 83 1.4 SSE 20 22 11 12 1025.2 1025.2 0.0
12/10:30pm 12.8 9.0 9.8 82 1.5 SSE 20 24 11 13 1025.1 1025.1 0.0
12/10:00pm 12.8 9.0 9.8 82 1.5 SSE 20 24 11 13 1025.0 1025.0 0.0
12/09:30pm 12.9 9.1 9.9 82 1.5 SSE 20 24 11 13 1025.0 1025.0 0.0
12/09:00pm 13.0 9.2 9.8 81 1.6 SSE 20 26 11 14 1024.9 1024.9 0.0
12/08:30pm 13.1 9.0 10.1 82 1.5 SSE 22 26 12 14 1024.7 1024.7 0.0
12/08:00pm 13.0 9.3 10.2 83 1.4 S 20 26 11 14 1024.4 1024.4 0.0
12/07:30pm 12.9 9.4 10.3 84 1.3 S 19 24 10 13 1024.0 1024.0 0.0
12/07:00pm 12.8 9.1 10.0 83 1.4 S 20 24 11 13 1023.6 1023.6 0.0
12/06:30pm 12.8 9.0 9.8 82 1.5 SSE 20 24 11 13 1023.3 1023.3 0.0
12/06:00pm 12.8 8.9 9.6 81 1.6 S 20 24 11 13 1023.0 1023.0 0.0
12/05:30pm 12.9 8.6 9.5 80 1.7 S 22 28 12 15 1022.6 1022.6 0.0
12/05:00pm 13.0 8.7 9.3 78 1.9 S 22 28 12 15 1022.3 1022.3 0.0
12/04:30pm 13.4 9.5 9.5 77 2.0 SSE 20 24 11 13 1022.1 1022.1 0.0
12/04:00pm 13.5 8.4 9.2 75 2.2 SSE 26 30 14 16 1021.8 1021.8 0.0
12/03:30pm 13.8 8.4 9.5 75 2.2 SSE 28 32 15 17 1021.6 1021.6 0.0
12/03:00pm 13.7 8.6 9.2 74 2.3 SSE 26 30 14 16 1021.4 1021.4 0.0
12/02:30pm 13.8 8.3 9.0 73 2.4 SSE 28 32 15 17 1021.2 1021.2 0.0
12/02:00pm 14.1 9.0 9.3 73 2.5 SSE 26 30 14 16 1021.1 1021.1 0.0
12/01:30pm 14.4 9.5 10.0 75 2.3 SSE 26 30 14 16 1021.2 1021.2 0.0
12/01:00pm 14.0 8.9 9.2 73 2.4 SSE 26 30 14 16 1021.2 1021.2 0.0
12/12:30pm 14.1 8.6 9.3 73 2.4 SSE 28 33 15 18 1021.2 1021.2 0.0
12/12:00pm 14.0 8.6 9.4 74 2.3 SSE 28 33 15 18 1021.3 1021.3 0.0
12/11:30am 13.9 8.9 9.5 75 2.2 SE 26 32 14 17 1021.3 1021.3 0.0
12/11:00am 13.8 8.0 9.3 74 2.3 SE 30 33 16 18 1021.3 1021.3 0.0
12/10:30am 13.7 7.9 9.6 76 2.1 SE 30 35 16 19 1021.1 1021.1 0.0
12/10:00am 13.4 7.7 9.8 79 1.8 SSE 30 35 16 19 1020.8 1020.8 0.0
12/09:30am 12.6 8.0 9.6 82 1.5 S 24 28 13 15 1020.4 1020.4 0.0
12/09:00am 12.8 7.0 9.6 81 1.6 S 30 35 16 19 1020.3 1020.3 5.8
12/08:30am 12.3 6.8 9.0 80 1.6 S 28 37 15 20 1019.8 1019.8 5.8
12/08:00am 12.2 6.6 8.7 79 1.7 S 28 35 15 19 1019.5 1019.5 5.8
12/07:30am 12.0 7.2 8.8 81 1.6 S 24 30 13 16 1019.1 1019.1 5.8
12/07:00am 12.0 6.5 9.2 83 1.4 S 28 33 15 18 1018.8 1018.8 5.8
12/06:30am 11.7 6.1 8.6 81 1.5 S 28 33 15 18 1018.2 1018.2 5.8
12/06:00am 11.2 5.0 7.9 80 1.6 S 30 39 16 21 1017.9 1017.9 5.8
12/05:30am 11.2 4.7 8.8 85 1.2 S 33 39 18 21 1017.6 1017.6 5.8
12/05:00am 11.5 5.1 9.2 86 1.2 S 33 41 18 22 1017.3 1017.3 5.2
12/04:30am 11.9 4.7 9.1 83 1.4 S 37 52 20 28 1017.1 1017.1 4.6
12/04:00am 11.2 3.8 8.2 82 1.5 SSW 37 48 20 26 1017.0 1017.0 4.2
12/03:30am 11.2 4.4 7.9 80 1.6 SSW 33 43 18 23 1017.2 1017.2 4.2
12/03:00am 11.9 5.0 8.9 82 1.5 S 35 41 19 22 1017.2 1017.2 4.0
12/02:30am 11.3 4.3 8.5 83 1.4 SSW 35 46 19 25 1017.3 1017.3 4.0
12/02:00am 11.1 3.2 8.0 81 1.5 S 39 50 21 27 1017.0 1017.0 3.8
12/01:52am 11.3 4.6 7.4 77 1.9 S 32 50 17 27 1016.8 1016.8 3.6
12/01:30am 11.8 5.2 7.7 76 2.0 S 32 35 17 19 1016.8 1016.8 3.6
12/01:00am 11.6 6.7 8.3 80 1.6 SW 24 46 13 25 1016.8 1016.8 3.6
12/12:30am 11.4 6.8 8.3 81 1.5 SW 22 28 12 15 1017.1 1017.1 3.6
12/12:00am 11.4 6.1 8.4 82 1.5 SW 26 32 14 17 1017.2 1017.2 3.6
 
Date/Time
CST
Temp
°C
App
Temp
°C
Dew
Point
°C
Rel
Hum
%
Delta-T
°C
Wind Press
QNH
hPa
Press
MSL
hPa
Rain since
9am
mm
Dir  Spd
km/h
Gust
km/h
Spd
kts
Gust
kts
11/11:30pm 10.7 7.3 7.6 81 1.5 SSW 15 19 8 10 1017.4 1017.4 3.6
11/11:00pm 10.8 7.3 7.3 79 1.7 SSW 15 17 8 9 1017.6 1017.6 3.6
11/10:30pm 10.6 6.7 7.1 79 1.7 SSE 17 20 9 11 1017.6 1017.6 3.6
11/10:00pm 10.4 3.7 7.5 82 1.4 SSE 32 41 17 22 1017.5 1017.5 3.4
11/09:38pm 10.6 3.1 7.8 83 1.4 S 37 43 20 23 1017.4 1017.4 2.8
11/09:30pm 10.7 3.9 7.0 78 1.8 SSW 32 43 17 23 1017.4 1017.4 2.2
11/09:00pm 11.5 6.8 7.8 78 1.8 SW 22 30 12 16 1017.4 1017.4 1.8
11/08:30pm 10.9 5.3 7.0 77 1.8 SSW 26 32 14 17 1017.2 1017.2 1.8
11/08:05pm 10.9 4.9 7.0 77 1.9 SSW 28 52 15 28 1016.9 1016.9 1.4
11/08:00pm 11.9 7.5 7.6 75 2.1 SSW 20 39 11 21 1016.9 1016.9 0.4
11/07:30pm 12.3 7.4 6.8 69 2.6 SSW 22 28 12 15 1016.7 1016.7 0.2
11/07:00pm 11.9 6.6 6.6 70 2.5 SSW 24 30 13 16 1016.6 1016.6 0.2
11/06:30pm 11.9 7.0 7.0 72 2.3 SSW 22 32 12 17 1016.4 1016.4 0.2
11/06:00pm 11.5 8.8 7.2 75 2.1 SW 11 24 6 13 1016.3 1016.3 0.2
11/05:30pm 11.6 7.2 6.7 72 2.3 SW 19 26 10 14 1016.0 1016.0 0.0
11/05:00pm 11.8 7.4 6.5 70 2.5 SW 19 26 10 14 1015.9 1015.9 0.0
11/04:30pm 12.0 7.5 6.3 68 2.7 SW 19 26 10 14 1015.8 1015.8 0.0
11/04:00pm 12.3 7.7 5.5 63 3.2 SSW 19 24 10 13 1015.6 1015.6 0.0
11/03:30pm 12.9 9.2 6.3 64 3.1 SW 15 19 8 10 1015.5 1015.5 0.0
11/03:00pm 13.2 9.7 5.6 60 3.6 WSW 13 19 7 10 1015.4 1015.4 0.0
11/02:30pm 13.0 9.6 5.9 62 3.3 WSW 13 17 7 9 1015.3 1015.3 0.0
11/02:00pm 12.9 9.2 6.5 65 3.1 WSW 15 20 8 11 1015.3 1015.3 0.0
11/01:30pm 13.2 9.0 5.6 60 3.6 W 17 22 9 12 1015.6 1015.6 0.0
11/01:00pm 13.2 9.2 5.1 58 3.8 WNW 15 20 8 11 1015.8 1015.8 0.0
11/12:30pm 12.9 9.5 6.0 63 3.3 NW 13 17 7 9 1016.1 1016.1 0.0
11/12:00pm 13.0 9.7 6.4 64 3.1 NW 13 17 7 9 1016.4 1016.4 0.0
11/11:30am 12.3 9.1 6.8 69 2.6 NW 13 20 7 11 1016.8 1016.8 0.0
11/11:00am 11.8 8.8 7.5 75 2.1 NW 13 19 7 10 1016.9 1016.9 0.0
11/10:30am 11.4 9.3 8.1 80 1.6 NW 9 11 5 6 1017.0 1017.0 0.0
11/10:00am 10.2 7.6 7.6 84 1.2 N 11 15 6 8 1016.9 1016.9 0.0

Latest Capital City Observations: Canberra | Sydney | Melbourne | Brisbane | Adelaide | Perth | Hobart | Darwin

Other formats

Comma delimited format used in spreadsheet applications
http://www.bom.gov.au/fwo/IDS60901/IDS60901.94677.axf

JavaScript Object Notation format (JSON) in row-major order
http://www.bom.gov.au/fwo/IDS60901/IDS60901.94677.json

Data quality

Most of these data are generated automatically and are frequently updated. Quality checks on data are not normally performed. It is possible for incorrect values to appear. Refer to information at About Latest Weather Observations and please check the disclaimer before using these data.